No Warnings, Watches, or Advisories

Active alerts


No alerts

Hours of Daylight

9 hrs 49 min 41 sec
of Daylight Today
40.9% Day 59.1% Night Which is
1 min 56 sec Longer
Than Yesterday

South Webcam more information South Webcam


NorthWest Webcam more information NorthWest Webcam


You find our weather info also at:

UK Metoffice

Weather Underground

Mid-Atlantic Weather Network

WeatherlinkIP

Citizen Weather Observer Program (CWOP)

HAMweather, WeatherForYou, PWS Weather



Nearby METAR Reports

   
KDUJ - Du Bois, Pennsylvania, USA
Distance from station: NNE 16 mi
Updated: Jan 23 2022 6:53 pm
Overcast  
Overcast  
   Wind: West 4.6 mph
Wind: West 4.6 mph
Temperature: 23°F
Wind Chill: 17.6°F
Dew Point: 19.4°F
Humidity: 86%
Barometer: 29.69 inHg
Clouds: Overcast
Visibility: 8 mi
Cloud details: Mostly Cloudy 7000 ft,
Overcast 10000 ft
KDUJ 232353Z AUTO 27004KT 8SM BKN070 OVC100 M05/M07 A2969 RMK AO2 SNE11 SLP078 P0000 60004 T10501072 11044 21050 53015
KIDI - Indiana/Stewart, Pennsylvania, USA
Distance from station: SSW 23 mi
Updated: Jan 23 2022 7:15 pm
Mist, Overcast  
Mist, Overcast  
   Wind: West 8.1 mph
Wind: West 8.1 mph
Temperature: 26.6°F
Wind Chill: 17.6°F
Dew Point: 26.6°F
Humidity: 100%
Barometer: 29.76 inHg
Clouds: Overcast
Visibility: 2 mi
Cloud details: Mostly Cloudy 1200 ft,
Overcast 1800 ft
KIDI 240015Z AUTO 28007KT 2SM BR BKN012 OVC018 M03/M03 A2976 RMK A01
KFIG - Clearfield, Pennsylvania, USA
Distance from station: ENE 31 mi
Updated: Jan 23 2022 7:05 pm
Light Snow, Mist, Overcast  
Light Snow, Mist, Overcast  
   Wind: NW 4.6 mph
Wind: NW 4.6 mph
Temperature: 24.8°F
Wind Chill: 19.4°F
Dew Point: 23°F
Humidity: 93%
Barometer: 29.71 inHg
Clouds: Overcast
Visibility: 3 mi
Cloud details: Overcast 2400 ft
KFIG 240005Z AUTO 32004KT 3SM -SN BR OVC024 M04/M05 A2971 RMK AO2 P0000 T10441050 $
KJST - Johnstown, Pennsylvania, USA
Distance from station: S 44 mi
Updated: Jan 23 2022 7:19 pm
Light Snow, Mist, Overcast  
Light Snow, Mist, Overcast  
   Wind: West 12.7 mph
Wind: West 12.7 mph
Temperature: 24.8°F
Wind Chill: 12.2°F
Dew Point: 21.2°F
Humidity: 86%
Barometer: 29.66 inHg
Clouds: Overcast
Visibility: 2 mi
Cloud details: Partly Cloudy 500 ft,
Mostly Cloudy 1000 ft,
Overcast 1600 ft
KJST 240019Z AUTO 27011KT 2 1/2SM -SN BR SCT005 BKN010 OVC016 M04/M06 A2966 RMK AO2 P0000 T10441061
KPIT - Pittsburgh, Pennsylvania, USA
Distance from station: WSW 74 mi
Updated: Jan 23 2022 7:17 pm
Light Snow, Overcast  
Light Snow, Overcast  
   Wind: NNW 10.4 mph
Wind: NNW 10.4 mph
Temperature: 24.8°F
Wind Chill: 15.8°F
Dew Point: 19.4°F
Humidity: 80%
Barometer: 29.78 inHg
Clouds: Overcast
Visibility: 5 mi
Cloud details: Few Clouds 600 ft,
Mostly Cloudy 2500 ft,
Overcast 3300 ft
KPIT 240017Z 33009KT 5SM -SN FEW006 BKN025 OVC033 M04/M07 A2978 RMK AO2 P0001 T10391067
KLBE - Latrobe/Westmorl, Pennsylvania, USA
Distance from station: SSW 52 mi
Updated: Jan 23 2022 6:47 pm
Light Snow, Overcast  
Light Snow, Overcast  
   Wind: WSW 6.9 mph
Wind: WSW 6.9 mph
Temperature: 28.4°F
Wind Chill: 21.2°F
Dew Point: 28.4°F
Humidity: 100%
Barometer: 29.76 inHg
Clouds: Overcast
Visibility: 4 mi
Cloud details: Partly Cloudy 200 ft,
Overcast 1000 ft
KLBE 232347Z 24006KT 4SM -SN SCT002 OVC010 M02/M02 A2976
KBTP - Butler Co., Pennsylvania, USA
Distance from station: WSW 52 mi
Updated: Jan 23 2022 6:56 pm
Light Snow, Overcast  
Light Snow, Overcast  
   Wind: NW 5.8 mph
Wind: NW 5.8 mph
Temperature: 24.8°F
Wind Chill: 17.6°F
Dew Point: 21.2°F
Humidity: 86%
Barometer: 29.77 inHg
Clouds: Overcast
Visibility: 9 mi
Cloud details: Few Clouds 1400 ft,
Overcast 6000 ft
KBTP 232356Z AUTO 32005KT 9SM -SN FEW014 OVC060 M04/M06 A2977 RMK AO2 SLP102 P0000 60000 T10441061 11017 21044 53023 FZRANO
KUCP - New Castle Muni, Pennsylvania, USA
Distance from station: W 75 mi
Updated: Jan 23 2022 6:56 pm
Light Snow, Mostly Cloudy  
Light Snow, Mostly Cloudy  
   Wind: North 10.4 mph<br />Gust to 10.4 mph
Wind: North 10.4 mph
Gust to 10.4 mph
Temperature: 21.2°F
Wind Chill: 10.4°F
Dew Point: 17.6°F
Humidity: 86%
Barometer: 29.8 inHg
Clouds: Mostly Cloudy
Visibility: 9 mi
Cloud details: Mostly Cloudy 2800 ft
KUCP 232356Z AUTO 35009G16KT 9SM -SN BKN028 M06/M08 A2980 RMK AO2 SLP123 P0000 60010 T10561083 11033 21056 53027
KFKL - Franklin, Pennsylvania, USA
Distance from station: WNW 54 mi
Updated: Jan 23 2022 7:12 pm
Light Snow, Overcast  
Light Snow, Overcast  
   Wind: North 6.9 mph
Wind: North 6.9 mph
Temperature: 19.4°F
Wind Chill: 10.4°F
Dew Point: 15.8°F
Humidity: 86%
Barometer: 29.77 inHg
Clouds: Overcast
Visibility: 9 mi
Cloud details: Partly Cloudy 1400 ft,
Partly Cloudy 4100 ft,
Overcast 5500 ft
KFKL 240012Z AUTO 35006KT 9SM -SN SCT014 SCT041 OVC055 M07/M09 A2977 RMK AO2 P0000 FZRANO
KAOO - Altoona, Pennsylvania, USA
Distance from station: SE 57 mi
Updated: Jan 23 2022 7:09 pm
Overcast  
Overcast  
   Wind: WSW 8.1 mph
Wind: WSW 8.1 mph
Temperature: 28.4°F
Wind Chill: 19.4°F
Dew Point: 23°F
Humidity: 80%
Barometer: 29.71 inHg
Clouds: Overcast
Visibility: 9 mi
Cloud details: Partly Cloudy 2300 ft,
Mostly Cloudy 2800 ft,
Overcast 4000 ft
KAOO 240009Z AUTO 24007KT 9SM SCT023 BKN028 OVC040 M02/M05 A2971 RMK AO2 T10171050
KUNV - State College, Pennsylvania, USA
Distance from station: E 61 mi
Updated: Jan 23 2022 7:15 pm
Light Snow, Overcast  
Light Snow, Overcast  
   Wind: Calm
Wind: Calm
Temperature: 26.6°F
Dew Point: 26.6°F
Humidity: 100%
Barometer: 29.72 inHg
Clouds: Overcast
Visibility: 2 mi
Cloud details: Partly Cloudy 900 ft,
Mostly Cloudy 2300 ft,
Overcast 8000 ft
KUNV 240015Z 00000KT 2SM -SN SCT009 BKN023 OVC080 M03/M03 A2972
KBFD - Bradford, Pennsylvania, USA
Distance from station: NNE 62 mi
Updated: Jan 23 2022 6:53 pm
Light Snow, Overcast  
Light Snow, Overcast  
   Wind: North 9.2 mph
Wind: North 9.2 mph
Temperature: 19.4°F
Wind Chill: 8.6°F
Dew Point: 12.2°F
Humidity: 73%
Barometer: 29.68 inHg
Clouds: Overcast
Visibility: 6 mi
Cloud details: Few Clouds 1000 ft,
Overcast 1500 ft
KBFD 232353Z AUTO 36008KT 6SM -SN FEW010 OVC015 M07/M11 A2968 RMK AO2 SLP079 P0000 60002 T10671106 11044 21067 53019

Script developed by  Saratoga-weather.org Adapted for the template by  Weerstation Leuven

Equipment we use:

Weather-station
Davis VP2

Weather-program
Cumulus

Weather-server
Dell Latitude e5450

Provider
Host On A Rope

Davis VP2

Cumulus

Dell Latitude e5450

Host On A Rope